sensor_id;sensor_type;location;lat;lon;timestamp;P1;durP1;ratioP1;P2;durP2;ratioP2
54193;SDS011;40102;50.906;6.972;2022-08-19T00:00:20;6.63;;;5.15;;
54193;SDS011;40102;50.906;6.972;2022-08-19T00:02:46;6.38;;;5.03;;
54193;SDS011;40102;50.906;6.972;2022-08-19T00:05:12;8.25;;;5.15;;
54193;SDS011;40102;50.906;6.972;2022-08-19T00:07:39;6.43;;;4.88;;
54193;SDS011;40102;50.906;6.972;2022-08-19T00:10:07;4.85;;;4.22;;
54193;SDS011;40102;50.906;6.972;2022-08-19T00:12:34;4.97;;;4.20;;
54193;SDS011;40102;50.906;6.972;2022-08-19T00:15:00;5.00;;;4.50;;
54193;SDS011;40102;50.906;6.972;2022-08-19T00:17:26;5.65;;;4.70;;
54193;SDS011;40102;50.906;6.972;2022-08-19T00:19:51;6.70;;;5.03;;
54193;SDS011;40102;50.906;6.972;2022-08-19T00:22:16;6.40;;;4.65;;
54193;SDS011;40102;50.906;6.972;2022-08-19T00:24:43;5.72;;;4.47;;
54193;SDS011;40102;50.906;6.972;2022-08-19T00:27:10;5.18;;;4.57;;
54193;SDS011;40102;50.906;6.972;2022-08-19T00:29:36;5.53;;;4.43;;
54193;SDS011;40102;50.906;6.972;2022-08-19T00:32:01;5.68;;;4.70;;
54193;SDS011;40102;50.906;6.972;2022-08-19T00:34:27;5.20;;;4.10;;
54193;SDS011;40102;50.906;6.972;2022-08-19T00:36:54;4.63;;;4.22;;
54193;SDS011;40102;50.906;6.972;2022-08-19T00:39:20;4.40;;;4.00;;
54193;SDS011;40102;50.906;6.972;2022-08-19T00:41:46;4.80;;;4.00;;
54193;SDS011;40102;50.906;6.972;2022-08-19T00:44:18;4.47;;;3.97;;
54193;SDS011;40102;50.906;6.972;2022-08-19T00:46:46;4.40;;;4.00;;
54193;SDS011;40102;50.906;6.972;2022-08-19T00:49:20;4.55;;;4.15;;
54193;SDS011;40102;50.906;6.972;2022-08-19T00:51:50;5.30;;;4.28;;
54193;SDS011;40102;50.906;6.972;2022-08-19T00:54:20;4.32;;;3.92;;
54193;SDS011;40102;50.906;6.972;2022-08-19T00:56:46;4.85;;;4.10;;
54193;SDS011;40102;50.906;6.972;2022-08-19T00:59:13;4.57;;;3.88;;
54193;SDS011;40102;50.906;6.972;2022-08-19T01:01:41;5.22;;;4.43;;
54193;SDS011;40102;50.906;6.972;2022-08-19T01:04:08;9.23;;;5.07;;
54193;SDS011;40102;50.906;6.972;2022-08-19T01:06:36;5.63;;;5.00;;
54193;SDS011;40102;50.906;6.972;2022-08-19T01:09:04;6.55;;;4.70;;
54193;SDS011;40102;50.906;6.972;2022-08-19T01:11:30;7.68;;;5.60;;
54193;SDS011;40102;50.906;6.972;2022-08-19T01:13:59;7.18;;;5.60;;
54193;SDS011;40102;50.906;6.972;2022-08-19T01:16:25;8.20;;;4.85;;
54193;SDS011;40102;50.906;6.972;2022-08-19T01:18:53;6.10;;;4.60;;
54193;SDS011;40102;50.906;6.972;2022-08-19T01:23:59;8.02;;;4.70;;
54193;SDS011;40102;50.906;6.972;2022-08-19T01:26:25;7.68;;;5.07;;
54193;SDS011;40102;50.906;6.972;2022-08-19T01:28:53;7.35;;;4.75;;
54193;SDS011;40102;50.906;6.972;2022-08-19T01:31:21;6.75;;;5.13;;
54193;SDS011;40102;50.906;6.972;2022-08-19T01:33:51;9.13;;;5.38;;
54193;SDS011;40102;50.906;6.972;2022-08-19T01:36:33;8.05;;;4.75;;
54193;SDS011;40102;50.906;6.972;2022-08-19T01:39:03;5.80;;;4.60;;
54193;SDS011;40102;50.906;6.972;2022-08-19T01:41:31;6.88;;;4.82;;
54193;SDS011;40102;50.906;6.972;2022-08-19T01:43:57;8.98;;;5.80;;
54193;SDS011;40102;50.906;6.972;2022-08-19T01:46:22;6.43;;;4.72;;
54193;SDS011;40102;50.906;6.972;2022-08-19T01:48:48;7.95;;;5.05;;
54193;SDS011;40102;50.906;6.972;2022-08-19T01:51:14;6.57;;;4.82;;
54193;SDS011;40102;50.906;6.972;2022-08-19T01:53:40;8.90;;;5.35;;
54193;SDS011;40102;50.906;6.972;2022-08-19T01:56:06;7.47;;;5.55;;
54193;SDS011;40102;50.906;6.972;2022-08-19T01:58:36;8.18;;;5.55;;
54193;SDS011;40102;50.906;6.972;2022-08-19T02:01:05;7.68;;;5.38;;
54193;SDS011;40102;50.906;6.972;2022-08-19T02:03:30;6.95;;;4.97;;
54193;SDS011;40102;50.906;6.972;2022-08-19T02:05:57;9.30;;;5.68;;
54193;SDS011;40102;50.906;6.972;2022-08-19T02:08:25;11.65;;;6.05;;
54193;SDS011;40102;50.906;6.972;2022-08-19T02:10:54;9.77;;;5.72;;
54193;SDS011;40102;50.906;6.972;2022-08-19T02:13:20;8.75;;;5.40;;
54193;SDS011;40102;50.906;6.972;2022-08-19T02:15:45;8.18;;;5.90;;
54193;SDS011;40102;50.906;6.972;2022-08-19T02:18:11;8.00;;;5.50;;
54193;SDS011;40102;50.906;6.972;2022-08-19T02:20:37;9.25;;;6.20;;
54193;SDS011;40102;50.906;6.972;2022-08-19T02:23:05;8.15;;;5.80;;
54193;SDS011;40102;50.906;6.972;2022-08-19T02:25:31;9.38;;;6.03;;
54193;SDS011;40102;50.906;6.972;2022-08-19T02:27:57;9.40;;;5.40;;
54193;SDS011;40102;50.906;6.972;2022-08-19T02:30:22;7.82;;;5.10;;
54193;SDS011;40102;50.906;6.972;2022-08-19T02:32:49;8.90;;;5.90;;
54193;SDS011;40102;50.906;6.972;2022-08-19T02:35:15;8.93;;;5.50;;
54193;SDS011;40102;50.906;6.972;2022-08-19T02:37:40;9.38;;;5.57;;
54193;SDS011;40102;50.906;6.972;2022-08-19T02:40:26;7.93;;;5.43;;
54193;SDS011;40102;50.906;6.972;2022-08-19T02:42:52;10.73;;;6.22;;
54193;SDS011;40102;50.906;6.972;2022-08-19T02:45:18;10.40;;;6.35;;
54193;SDS011;40102;50.906;6.972;2022-08-19T02:47:43;12.60;;;5.72;;
54193;SDS011;40102;50.906;6.972;2022-08-19T02:50:09;8.68;;;5.63;;
54193;SDS011;40102;50.906;6.972;2022-08-19T02:52:35;8.73;;;6.10;;
54193;SDS011;40102;50.906;6.972;2022-08-19T02:55:01;9.68;;;6.00;;
54193;SDS011;40102;50.906;6.972;2022-08-19T02:57:26;7.63;;;5.72;;
54193;SDS011;40102;50.906;6.972;2022-08-19T02:59:52;10.15;;;6.20;;
54193;SDS011;40102;50.906;6.972;2022-08-19T03:02:18;9.57;;;6.03;;
54193;SDS011;40102;50.906;6.972;2022-08-19T03:04:44;7.75;;;5.50;;
54193;SDS011;40102;50.906;6.972;2022-08-19T03:07:14;7.75;;;5.22;;
54193;SDS011;40102;50.906;6.972;2022-08-19T03:09:41;10.35;;;5.88;;
54193;SDS011;40102;50.906;6.972;2022-08-19T03:12:07;6.88;;;5.55;;
54193;SDS011;40102;50.906;6.972;2022-08-19T03:14:34;8.95;;;5.00;;
54193;SDS011;40102;50.906;6.972;2022-08-19T03:17:00;7.57;;;5.30;;
54193;SDS011;40102;50.906;6.972;2022-08-19T03:19:26;6.80;;;5.30;;
54193;SDS011;40102;50.906;6.972;2022-08-19T03:21:52;5.85;;;4.78;;
54193;SDS011;40102;50.906;6.972;2022-08-19T03:24:18;8.02;;;5.63;;
54193;SDS011;40102;50.906;6.972;2022-08-19T03:26:46;9.43;;;6.32;;
54193;SDS011;40102;50.906;6.972;2022-08-19T03:29:14;7.90;;;4.97;;
54193;SDS011;40102;50.906;6.972;2022-08-19T03:31:41;11.43;;;5.50;;
54193;SDS011;40102;50.906;6.972;2022-08-19T03:34:08;9.32;;;5.50;;
54193;SDS011;40102;50.906;6.972;2022-08-19T03:36:36;8.35;;;5.88;;
54193;SDS011;40102;50.906;6.972;2022-08-19T03:39:02;10.98;;;6.40;;
54193;SDS011;40102;50.906;6.972;2022-08-19T03:41:29;9.32;;;6.55;;
54193;SDS011;40102;50.906;6.972;2022-08-19T03:43:57;9.07;;;5.83;;
54193;SDS011;40102;50.906;6.972;2022-08-19T03:46:24;9.25;;;6.18;;
54193;SDS011;40102;50.906;6.972;2022-08-19T03:48:53;10.13;;;5.95;;
54193;SDS011;40102;50.906;6.972;2022-08-19T03:51:23;9.85;;;5.65;;
54193;SDS011;40102;50.906;6.972;2022-08-19T03:53:51;11.52;;;6.70;;
54193;SDS011;40102;50.906;6.972;2022-08-19T03:56:18;9.73;;;6.72;;
54193;SDS011;40102;50.906;6.972;2022-08-19T03:58:44;11.00;;;6.85;;
54193;SDS011;40102;50.906;6.972;2022-08-19T04:01:10;12.15;;;6.28;;
54193;SDS011;40102;50.906;6.972;2022-08-19T04:03:39;9.20;;;6.68;;
54193;SDS011;40102;50.906;6.972;2022-08-19T04:06:24;9.38;;;6.68;;
54193;SDS011;40102;50.906;6.972;2022-08-19T04:08:53;8.60;;;6.63;;
54193;SDS011;40102;50.906;6.972;2022-08-19T04:11:31;9.45;;;6.68;;
54193;SDS011;40102;50.906;6.972;2022-08-19T04:13:59;11.80;;;6.82;;
54193;SDS011;40102;50.906;6.972;2022-08-19T04:16:25;9.38;;;6.18;;
54193;SDS011;40102;50.906;6.972;2022-08-19T04:18:55;6.50;;;5.60;;
54193;SDS011;40102;50.906;6.972;2022-08-19T04:21:25;8.48;;;6.07;;
54193;SDS011;40102;50.906;6.972;2022-08-19T04:23:51;6.60;;;5.90;;
54193;SDS011;40102;50.906;6.972;2022-08-19T04:26:19;12.07;;;7.38;;
54193;SDS011;40102;50.906;6.972;2022-08-19T04:28:48;8.30;;;5.63;;
54193;SDS011;40102;50.906;6.972;2022-08-19T04:31:21;5.93;;;5.32;;
54193;SDS011;40102;50.906;6.972;2022-08-19T04:33:55;7.63;;;6.00;;
54193;SDS011;40102;50.906;6.972;2022-08-19T04:36:26;6.63;;;5.00;;
54193;SDS011;40102;50.906;6.972;2022-08-19T04:38:57;9.32;;;6.18;;
54193;SDS011;40102;50.906;6.972;2022-08-19T04:41:24;6.55;;;5.88;;
54193;SDS011;40102;50.906;6.972;2022-08-19T04:44:09;7.45;;;5.68;;
54193;SDS011;40102;50.906;6.972;2022-08-19T04:46:35;9.13;;;6.20;;
54193;SDS011;40102;50.906;6.972;2022-08-19T04:49:03;8.15;;;5.70;;
54193;SDS011;40102;50.906;6.972;2022-08-19T04:51:30;7.45;;;6.00;;
54193;SDS011;40102;50.906;6.972;2022-08-19T04:53:57;6.57;;;5.90;;
54193;SDS011;40102;50.906;6.972;2022-08-19T04:56:22;7.50;;;5.90;;
54193;SDS011;40102;50.906;6.972;2022-08-19T04:58:51;8.45;;;6.30;;
54193;SDS011;40102;50.906;6.972;2022-08-19T05:01:17;9.70;;;6.60;;
54193;SDS011;40102;50.906;6.972;2022-08-19T05:03:45;8.95;;;7.05;;
54193;SDS011;40102;50.906;6.972;2022-08-19T05:06:11;8.32;;;6.53;;
54193;SDS011;40102;50.906;6.972;2022-08-19T05:08:39;13.07;;;8.70;;
54193;SDS011;40102;50.906;6.972;2022-08-19T05:11:20;11.95;;;8.05;;
54193;SDS011;40102;50.906;6.972;2022-08-19T05:13:47;11.03;;;8.70;;
54193;SDS011;40102;50.906;6.972;2022-08-19T05:16:14;14.20;;;9.80;;
54193;SDS011;40102;50.906;6.972;2022-08-19T05:18:42;14.95;;;10.65;;
54193;SDS011;40102;50.906;6.972;2022-08-19T05:21:27;16.00;;;11.55;;
54193;SDS011;40102;50.906;6.972;2022-08-19T05:24:11;14.38;;;10.80;;
54193;SDS011;40102;50.906;6.972;2022-08-19T05:26:41;17.10;;;11.63;;
54193;SDS011;40102;50.906;6.972;2022-08-19T05:29:11;14.55;;;9.82;;
54193;SDS011;40102;50.906;6.972;2022-08-19T05:31:38;13.80;;;10.40;;
54193;SDS011;40102;50.906;6.972;2022-08-19T05:34:03;11.98;;;9.40;;
54193;SDS011;40102;50.906;6.972;2022-08-19T05:36:33;12.77;;;10.57;;
54193;SDS011;40102;50.906;6.972;2022-08-19T05:39:11;12.02;;;9.75;;
54193;SDS011;40102;50.906;6.972;2022-08-19T05:41:44;13.60;;;9.45;;
54193;SDS011;40102;50.906;6.972;2022-08-19T05:44:11;13.40;;;10.80;;
54193;SDS011;40102;50.906;6.972;2022-08-19T05:46:37;17.70;;;13.40;;
54193;SDS011;40102;50.906;6.972;2022-08-19T05:49:06;19.45;;;13.95;;
54193;SDS011;40102;50.906;6.972;2022-08-19T05:51:33;15.40;;;11.73;;
54193;SDS011;40102;50.906;6.972;2022-08-19T05:54:04;14.60;;;11.07;;
54193;SDS011;40102;50.906;6.972;2022-08-19T05:56:31;9.70;;;8.70;;
54193;SDS011;40102;50.906;6.972;2022-08-19T05:58:57;13.40;;;11.07;;
54193;SDS011;40102;50.906;6.972;2022-08-19T06:01:24;18.73;;;14.70;;
54193;SDS011;40102;50.906;6.972;2022-08-19T06:03:51;19.90;;;14.70;;
54193;SDS011;40102;50.906;6.972;2022-08-19T06:06:17;20.95;;;15.02;;
54193;SDS011;40102;50.906;6.972;2022-08-19T06:08:43;18.30;;;13.98;;
54193;SDS011;40102;50.906;6.972;2022-08-19T06:13:48;18.20;;;13.43;;
54193;SDS011;40102;50.906;6.972;2022-08-19T06:16:20;21.73;;;11.82;;
54193;SDS011;40102;50.906;6.972;2022-08-19T06:18:47;16.30;;;12.43;;
54193;SDS011;40102;50.906;6.972;2022-08-19T06:21:17;22.73;;;15.60;;
54193;SDS011;40102;50.906;6.972;2022-08-19T06:23:47;24.52;;;15.07;;
54193;SDS011;40102;50.906;6.972;2022-08-19T06:26:14;14.63;;;12.45;;
54193;SDS011;40102;50.906;6.972;2022-08-19T06:28:40;21.70;;;15.43;;
54193;SDS011;40102;50.906;6.972;2022-08-19T06:31:10;18.00;;;13.17;;
54193;SDS011;40102;50.906;6.972;2022-08-19T06:33:38;16.45;;;12.77;;
54193;SDS011;40102;50.906;6.972;2022-08-19T06:36:05;20.58;;;14.82;;
54193;SDS011;40102;50.906;6.972;2022-08-19T06:38:30;17.38;;;13.45;;
54193;SDS011;40102;50.906;6.972;2022-08-19T06:41:02;22.65;;;16.23;;
54193;SDS011;40102;50.906;6.972;2022-08-19T06:43:29;22.92;;;14.25;;
54193;SDS011;40102;50.906;6.972;2022-08-19T06:45:54;21.73;;;14.88;;
54193;SDS011;40102;50.906;6.972;2022-08-19T06:48:21;25.40;;;16.42;;
54193;SDS011;40102;50.906;6.972;2022-08-19T06:50:47;22.83;;;16.40;;
54193;SDS011;40102;50.906;6.972;2022-08-19T06:53:14;18.52;;;14.70;;
54193;SDS011;40102;50.906;6.972;2022-08-19T06:55:40;17.23;;;13.70;;
54193;SDS011;40102;50.906;6.972;2022-08-19T06:58:08;18.40;;;13.63;;
54193;SDS011;40102;50.906;6.972;2022-08-19T07:00:36;12.65;;;9.77;;
54193;SDS011;40102;50.906;6.972;2022-08-19T07:03:02;18.92;;;11.73;;
54193;SDS011;40102;50.906;6.972;2022-08-19T07:05:29;15.68;;;11.75;;
54193;SDS011;40102;50.906;6.972;2022-08-19T07:07:54;19.17;;;11.75;;
54193;SDS011;40102;50.906;6.972;2022-08-19T07:10:21;16.85;;;10.73;;
54193;SDS011;40102;50.906;6.972;2022-08-19T07:12:46;15.10;;;11.40;;
54193;SDS011;40102;50.906;6.972;2022-08-19T07:15:13;12.50;;;9.35;;
54193;SDS011;40102;50.906;6.972;2022-08-19T07:17:40;14.40;;;10.60;;
54193;SDS011;40102;50.906;6.972;2022-08-19T07:20:08;14.68;;;10.48;;
54193;SDS011;40102;50.906;6.972;2022-08-19T07:22:36;14.68;;;10.88;;
54193;SDS011;40102;50.906;6.972;2022-08-19T07:25:22;15.30;;;10.50;;
54193;SDS011;40102;50.906;6.972;2022-08-19T07:28:14;15.05;;;10.57;;
54193;SDS011;40102;50.906;6.972;2022-08-19T07:30:39;14.90;;;11.02;;
54193;SDS011;40102;50.906;6.972;2022-08-19T07:33:05;16.02;;;10.23;;
54193;SDS011;40102;50.906;6.972;2022-08-19T07:35:31;15.00;;;11.05;;
54193;SDS011;40102;50.906;6.972;2022-08-19T07:37:57;16.48;;;11.15;;
54193;SDS011;40102;50.906;6.972;2022-08-19T07:40:22;17.75;;;11.65;;
54193;SDS011;40102;50.906;6.972;2022-08-19T07:42:48;12.30;;;9.30;;
54193;SDS011;40102;50.906;6.972;2022-08-19T07:45:13;20.48;;;12.80;;
54193;SDS011;40102;50.906;6.972;2022-08-19T07:47:40;17.25;;;10.85;;
54193;SDS011;40102;50.906;6.972;2022-08-19T07:50:07;14.55;;;10.65;;
54193;SDS011;40102;50.906;6.972;2022-08-19T07:52:34;12.65;;;9.18;;
54193;SDS011;40102;50.906;6.972;2022-08-19T07:55:03;13.00;;;8.02;;
54193;SDS011;40102;50.906;6.972;2022-08-19T07:57:29;13.05;;;9.27;;
54193;SDS011;40102;50.906;6.972;2022-08-19T07:59:54;22.50;;;13.75;;
54193;SDS011;40102;50.906;6.972;2022-08-19T08:02:21;18.65;;;13.52;;
54193;SDS011;40102;50.906;6.972;2022-08-19T08:04:46;15.70;;;11.05;;
54193;SDS011;40102;50.906;6.972;2022-08-19T08:07:30;13.43;;;9.52;;
54193;SDS011;40102;50.906;6.972;2022-08-19T08:10:18;24.85;;;13.18;;
54193;SDS011;40102;50.906;6.972;2022-08-19T08:12:43;21.50;;;14.27;;
54193;SDS011;40102;50.906;6.972;2022-08-19T08:15:11;17.90;;;13.13;;
54193;SDS011;40102;50.906;6.972;2022-08-19T08:17:43;24.23;;;15.95;;
54193;SDS011;40102;50.906;6.972;2022-08-19T08:20:09;20.25;;;12.40;;
54193;SDS011;40102;50.906;6.972;2022-08-19T08:22:35;22.60;;;13.13;;
54193;SDS011;40102;50.906;6.972;2022-08-19T08:25:20;19.50;;;12.02;;
54193;SDS011;40102;50.906;6.972;2022-08-19T08:27:47;20.48;;;13.55;;
54193;SDS011;40102;50.906;6.972;2022-08-19T08:30:19;16.25;;;10.75;;
54193;SDS011;40102;50.906;6.972;2022-08-19T08:32:47;15.65;;;9.55;;
54193;SDS011;40102;50.906;6.972;2022-08-19T08:35:16;18.25;;;12.57;;
54193;SDS011;40102;50.906;6.972;2022-08-19T08:37:44;15.18;;;10.48;;
54193;SDS011;40102;50.906;6.972;2022-08-19T08:40:19;25.92;;;14.98;;
54193;SDS011;40102;50.906;6.972;2022-08-19T08:42:59;15.82;;;10.95;;
54193;SDS011;40102;50.906;6.972;2022-08-19T08:45:30;16.23;;;11.15;;
54193;SDS011;40102;50.906;6.972;2022-08-19T08:48:00;21.20;;;14.53;;
54193;SDS011;40102;50.906;6.972;2022-08-19T08:50:29;21.02;;;14.13;;
54193;SDS011;40102;50.906;6.972;2022-08-19T08:53:01;25.15;;;13.95;;
54193;SDS011;40102;50.906;6.972;2022-08-19T08:55:29;21.45;;;14.57;;
54193;SDS011;40102;50.906;6.972;2022-08-19T08:58:05;27.02;;;16.60;;
54193;SDS011;40102;50.906;6.972;2022-08-19T09:00:39;22.63;;;14.70;;
54193;SDS011;40102;50.906;6.972;2022-08-19T09:03:09;22.40;;;14.73;;
54193;SDS011;40102;50.906;6.972;2022-08-19T09:06:02;32.90;;;17.63;;
54193;SDS011;40102;50.906;6.972;2022-08-19T09:11:31;27.70;;;17.88;;
54193;SDS011;40102;50.906;6.972;2022-08-19T09:14:17;27.60;;;17.52;;
54193;SDS011;40102;50.906;6.972;2022-08-19T09:16:43;32.05;;;20.33;;
54193;SDS011;40102;50.906;6.972;2022-08-19T09:19:09;22.60;;;14.95;;
54193;SDS011;40102;50.906;6.972;2022-08-19T09:21:35;24.48;;;14.50;;
54193;SDS011;40102;50.906;6.972;2022-08-19T09:24:04;22.67;;;15.18;;
54193;SDS011;40102;50.906;6.972;2022-08-19T09:26:31;22.40;;;14.77;;
54193;SDS011;40102;50.906;6.972;2022-08-19T09:28:57;24.02;;;15.32;;
54193;SDS011;40102;50.906;6.972;2022-08-19T09:31:25;22.50;;;13.77;;
54193;SDS011;40102;50.906;6.972;2022-08-19T09:33:53;19.13;;;13.20;;
54193;SDS011;40102;50.906;6.972;2022-08-19T09:36:22;21.98;;;15.10;;
54193;SDS011;40102;50.906;6.972;2022-08-19T09:38:49;15.75;;;12.13;;
54193;SDS011;40102;50.906;6.972;2022-08-19T09:41:20;16.67;;;11.55;;
54193;SDS011;40102;50.906;6.972;2022-08-19T09:43:48;16.90;;;10.88;;
54193;SDS011;40102;50.906;6.972;2022-08-19T09:46:17;18.23;;;12.85;;
54193;SDS011;40102;50.906;6.972;2022-08-19T09:48:45;16.30;;;10.52;;
54193;SDS011;40102;50.906;6.972;2022-08-19T09:51:14;13.23;;;9.07;;
54193;SDS011;40102;50.906;6.972;2022-08-19T09:53:45;14.23;;;10.30;;
54193;SDS011;40102;50.906;6.972;2022-08-19T09:56:12;13.82;;;9.85;;
54193;SDS011;40102;50.906;6.972;2022-08-19T09:58:39;14.63;;;9.65;;
54193;SDS011;40102;50.906;6.972;2022-08-19T10:01:06;10.25;;;7.68;;
54193;SDS011;40102;50.906;6.972;2022-08-19T10:03:34;14.60;;;9.90;;
54193;SDS011;40102;50.906;6.972;2022-08-19T10:06:01;11.85;;;8.32;;
54193;SDS011;40102;50.906;6.972;2022-08-19T10:08:30;12.35;;;7.95;;
54193;SDS011;40102;50.906;6.972;2022-08-19T10:10:58;8.52;;;6.72;;
54193;SDS011;40102;50.906;6.972;2022-08-19T10:13:26;11.65;;;7.40;;
54193;SDS011;40102;50.906;6.972;2022-08-19T10:15:53;11.50;;;8.27;;
54193;SDS011;40102;50.906;6.972;2022-08-19T10:18:21;12.60;;;10.02;;
54193;SDS011;40102;50.906;6.972;2022-08-19T10:20:48;12.77;;;9.75;;
54193;SDS011;40102;50.906;6.972;2022-08-19T10:23:15;12.98;;;8.90;;
54193;SDS011;40102;50.906;6.972;2022-08-19T10:25:42;11.63;;;9.25;;
54193;SDS011;40102;50.906;6.972;2022-08-19T10:28:07;14.63;;;9.35;;
54193;SDS011;40102;50.906;6.972;2022-08-19T10:30:39;9.10;;;7.10;;
54193;SDS011;40102;50.906;6.972;2022-08-19T10:33:11;16.65;;;11.30;;
54193;SDS011;40102;50.906;6.972;2022-08-19T10:35:38;14.85;;;10.68;;
54193;SDS011;40102;50.906;6.972;2022-08-19T10:38:04;14.32;;;9.60;;
54193;SDS011;40102;50.906;6.972;2022-08-19T10:40:29;11.13;;;8.43;;
54193;SDS011;40102;50.906;6.972;2022-08-19T10:43:01;13.57;;;8.40;;
54193;SDS011;40102;50.906;6.972;2022-08-19T10:45:28;8.07;;;6.90;;
54193;SDS011;40102;50.906;6.972;2022-08-19T10:47:57;8.32;;;7.25;;
54193;SDS011;40102;50.906;6.972;2022-08-19T10:50:22;11.88;;;7.43;;
54193;SDS011;40102;50.906;6.972;2022-08-19T10:53:09;9.23;;;7.20;;
54193;SDS011;40102;50.906;6.972;2022-08-19T10:55:37;8.70;;;7.40;;
54193;SDS011;40102;50.906;6.972;2022-08-19T10:58:22;9.93;;;7.32;;
54193;SDS011;40102;50.906;6.972;2022-08-19T11:00:54;11.55;;;7.82;;
54193;SDS011;40102;50.906;6.972;2022-08-19T11:03:22;9.07;;;7.18;;
54193;SDS011;40102;50.906;6.972;2022-08-19T11:06:01;9.90;;;7.03;;
54193;SDS011;40102;50.906;6.972;2022-08-19T11:08:34;9.65;;;7.60;;
54193;SDS011;40102;50.906;6.972;2022-08-19T11:11:02;11.30;;;8.55;;
54193;SDS011;40102;50.906;6.972;2022-08-19T11:13:29;9.85;;;8.20;;
54193;SDS011;40102;50.906;6.972;2022-08-19T11:15:59;10.63;;;7.90;;
54193;SDS011;40102;50.906;6.972;2022-08-19T11:18:37;9.25;;;7.43;;
54193;SDS011;40102;50.906;6.972;2022-08-19T11:21:11;15.13;;;10.40;;
54193;SDS011;40102;50.906;6.972;2022-08-19T11:23:44;12.48;;;9.45;;
54193;SDS011;40102;50.906;6.972;2022-08-19T11:26:11;12.80;;;9.77;;
54193;SDS011;40102;50.906;6.972;2022-08-19T11:28:40;11.00;;;7.60;;
54193;SDS011;40102;50.906;6.972;2022-08-19T11:31:15;11.05;;;8.70;;
54193;SDS011;40102;50.906;6.972;2022-08-19T11:33:43;8.13;;;6.72;;
54193;SDS011;40102;50.906;6.972;2022-08-19T11:36:08;11.48;;;8.52;;
54193;SDS011;40102;50.906;6.972;2022-08-19T11:39:08;7.85;;;6.60;;
54193;SDS011;40102;50.906;6.972;2022-08-19T11:44:11;9.32;;;6.50;;
54193;SDS011;40102;50.906;6.972;2022-08-19T11:46:46;11.52;;;8.10;;
54193;SDS011;40102;50.906;6.972;2022-08-19T11:49:20;9.35;;;7.65;;
54193;SDS011;40102;50.906;6.972;2022-08-19T11:51:58;10.27;;;8.02;;
54193;SDS011;40102;50.906;6.972;2022-08-19T11:54:39;10.52;;;8.10;;
54193;SDS011;40102;50.906;6.972;2022-08-19T11:57:04;9.07;;;7.30;;
54193;SDS011;40102;50.906;6.972;2022-08-19T11:59:30;8.32;;;7.40;;
54193;SDS011;40102;50.906;6.972;2022-08-19T12:01:55;9.02;;;7.00;;
54193;SDS011;40102;50.906;6.972;2022-08-19T12:04:21;10.00;;;8.75;;
54193;SDS011;40102;50.906;6.972;2022-08-19T12:06:47;16.73;;;8.38;;
54193;SDS011;40102;50.906;6.972;2022-08-19T12:09:13;13.60;;;8.68;;
54193;SDS011;40102;50.906;6.972;2022-08-19T12:11:40;10.40;;;8.45;;
54193;SDS011;40102;50.906;6.972;2022-08-19T12:14:06;12.40;;;7.45;;
54193;SDS011;40102;50.906;6.972;2022-08-19T12:16:34;10.38;;;6.85;;
54193;SDS011;40102;50.906;6.972;2022-08-19T12:19:00;11.00;;;6.55;;
54193;SDS011;40102;50.906;6.972;2022-08-19T12:21:29;11.68;;;7.03;;
54193;SDS011;40102;50.906;6.972;2022-08-19T12:23:56;8.07;;;6.53;;
54193;SDS011;40102;50.906;6.972;2022-08-19T12:26:23;9.77;;;7.70;;
54193;SDS011;40102;50.906;6.972;2022-08-19T12:28:49;12.50;;;7.88;;
54193;SDS011;40102;50.906;6.972;2022-08-19T12:31:15;7.57;;;5.90;;
54193;SDS011;40102;50.906;6.972;2022-08-19T12:33:41;9.50;;;6.47;;
54193;SDS011;40102;50.906;6.972;2022-08-19T12:36:08;8.98;;;6.47;;
54193;SDS011;40102;50.906;6.972;2022-08-19T12:38:36;8.20;;;6.10;;
54193;SDS011;40102;50.906;6.972;2022-08-19T12:41:03;6.47;;;5.70;;
54193;SDS011;40102;50.906;6.972;2022-08-19T12:43:34;9.32;;;5.93;;
54193;SDS011;40102;50.906;6.972;2022-08-19T12:46:00;11.73;;;5.20;;
54193;SDS011;40102;50.906;6.972;2022-08-19T12:48:26;18.65;;;6.45;;
54193;SDS011;40102;50.906;6.972;2022-08-19T12:50:52;5.70;;;5.10;;
54193;SDS011;40102;50.906;6.972;2022-08-19T12:53:17;7.10;;;5.32;;
54193;SDS011;40102;50.906;6.972;2022-08-19T12:55:43;7.43;;;5.65;;
54193;SDS011;40102;50.906;6.972;2022-08-19T12:58:08;10.35;;;6.90;;
54193;SDS011;40102;50.906;6.972;2022-08-19T13:00:35;10.05;;;6.25;;
54193;SDS011;40102;50.906;6.972;2022-08-19T13:03:00;13.13;;;7.70;;
54193;SDS011;40102;50.906;6.972;2022-08-19T13:05:27;10.40;;;7.72;;
54193;SDS011;40102;50.906;6.972;2022-08-19T13:07:55;11.30;;;6.60;;
54193;SDS011;40102;50.906;6.972;2022-08-19T13:10:23;13.18;;;7.18;;
54193;SDS011;40102;50.906;6.972;2022-08-19T13:12:52;8.10;;;5.88;;
54193;SDS011;40102;50.906;6.972;2022-08-19T13:15:19;7.57;;;5.32;;
54193;SDS011;40102;50.906;6.972;2022-08-19T13:17:46;8.25;;;5.88;;
54193;SDS011;40102;50.906;6.972;2022-08-19T13:22:41;8.82;;;5.75;;
54193;SDS011;40102;50.906;6.972;2022-08-19T13:25:07;7.35;;;5.18;;
54193;SDS011;40102;50.906;6.972;2022-08-19T13:27:34;7.55;;;5.65;;
54193;SDS011;40102;50.906;6.972;2022-08-19T13:30:00;7.75;;;5.25;;
54193;SDS011;40102;50.906;6.972;2022-08-19T13:32:47;10.65;;;5.35;;
54193;SDS011;40102;50.906;6.972;2022-08-19T13:35:30;8.45;;;5.32;;
54193;SDS011;40102;50.906;6.972;2022-08-19T13:37:56;6.05;;;4.80;;
54193;SDS011;40102;50.906;6.972;2022-08-19T13:40:22;8.13;;;4.82;;
54193;SDS011;40102;50.906;6.972;2022-08-19T13:42:51;6.32;;;4.80;;
54193;SDS011;40102;50.906;6.972;2022-08-19T13:45:21;10.50;;;5.40;;
54193;SDS011;40102;50.906;6.972;2022-08-19T13:47:49;7.38;;;4.60;;
54193;SDS011;40102;50.906;6.972;2022-08-19T13:50:17;6.32;;;4.95;;
54193;SDS011;40102;50.906;6.972;2022-08-19T13:52:45;7.68;;;4.63;;
54193;SDS011;40102;50.906;6.972;2022-08-19T13:55:10;7.82;;;5.13;;
54193;SDS011;40102;50.906;6.972;2022-08-19T13:57:37;5.93;;;5.07;;
54193;SDS011;40102;50.906;6.972;2022-08-19T14:00:11;6.22;;;4.68;;
54193;SDS011;40102;50.906;6.972;2022-08-19T14:02:40;6.32;;;4.97;;
54193;SDS011;40102;50.906;6.972;2022-08-19T14:05:07;8.95;;;5.00;;
54193;SDS011;40102;50.906;6.972;2022-08-19T14:07:35;9.38;;;5.05;;
54193;SDS011;40102;50.906;6.972;2022-08-19T14:10:01;6.75;;;5.50;;
54193;SDS011;40102;50.906;6.972;2022-08-19T14:12:28;7.50;;;5.63;;
54193;SDS011;40102;50.906;6.972;2022-08-19T14:14:53;8.75;;;4.65;;
54193;SDS011;40102;50.906;6.972;2022-08-19T14:17:19;5.63;;;4.40;;
54193;SDS011;40102;50.906;6.972;2022-08-19T14:19:44;5.50;;;4.60;;
54193;SDS011;40102;50.906;6.972;2022-08-19T14:22:09;10.30;;;5.25;;
54193;SDS011;40102;50.906;6.972;2022-08-19T14:24:36;6.65;;;4.88;;
54193;SDS011;40102;50.906;6.972;2022-08-19T14:27:04;6.50;;;4.38;;
54193;SDS011;40102;50.906;6.972;2022-08-19T14:29:31;5.97;;;4.70;;
54193;SDS011;40102;50.906;6.972;2022-08-19T14:31:57;6.90;;;4.30;;
54193;SDS011;40102;50.906;6.972;2022-08-19T14:34:23;11.52;;;4.68;;
54193;SDS011;40102;50.906;6.972;2022-08-19T14:36:50;6.73;;;5.00;;
54193;SDS011;40102;50.906;6.972;2022-08-19T14:39:15;10.60;;;5.25;;
54193;SDS011;40102;50.906;6.972;2022-08-19T14:41:40;8.68;;;4.32;;
54193;SDS011;40102;50.906;6.972;2022-08-19T14:44:10;5.68;;;4.32;;
54193;SDS011;40102;50.906;6.972;2022-08-19T14:46:37;8.68;;;4.53;;
54193;SDS011;40102;50.906;6.972;2022-08-19T14:49:03;8.65;;;4.55;;
54193;SDS011;40102;50.906;6.972;2022-08-19T14:51:29;8.60;;;4.30;;
54193;SDS011;40102;50.906;6.972;2022-08-19T14:53:54;9.93;;;5.05;;
54193;SDS011;40102;50.906;6.972;2022-08-19T14:56:21;5.80;;;4.00;;
54193;SDS011;40102;50.906;6.972;2022-08-19T14:58:49;8.45;;;3.63;;